createdAt,value
2022-09-10T00:00:40.916Z,100076.59
2022-09-10T00:03:10.497Z,100072.00
2022-09-10T00:05:43.237Z,100083.59
2022-09-10T00:08:15.881Z,100078.28
2022-09-10T00:10:46.714Z,100086.13
2022-09-10T00:13:17.494Z,100079.00
2022-09-10T00:15:48.789Z,100083.38
2022-09-10T00:18:20.296Z,100084.31
2022-09-10T00:20:51.235Z,100086.03
2022-09-10T00:23:26.677Z,100087.00
2022-09-10T00:25:56.585Z,100087.09
2022-09-10T00:28:28.028Z,100090.63
2022-09-10T00:30:58.070Z,100089.88
2022-09-10T00:33:29.134Z,100081.19
2022-09-10T00:35:58.867Z,100088.91
2022-09-10T00:38:31.500Z,100089.03
2022-09-10T00:41:08.177Z,100088.31
2022-09-10T00:43:54.554Z,100088.41
2022-09-10T00:46:38.354Z,100079.56
2022-09-10T00:49:15.630Z,100080.53
2022-09-10T00:51:45.396Z,100088.75
2022-09-10T00:54:17.953Z,100093.22
2022-09-10T00:56:48.068Z,100085.38
2022-09-10T00:59:20.309Z,100088.22
2022-09-10T01:01:50.577Z,100084.00
2022-09-10T01:04:20.552Z,100086.66
2022-09-10T01:06:52.975Z,100090.88
2022-09-10T01:09:26.611Z,100081.22
2022-09-10T01:12:06.986Z,100089.06
2022-09-10T01:15:05.358Z,100079.41
2022-09-10T01:17:41.910Z,100079.41
2022-09-10T01:20:53.822Z,100076.88
2022-09-10T01:23:53.697Z,100071.53
2022-09-10T01:26:45.446Z,100067.19
2022-09-10T01:29:22.713Z,100067.19
2022-09-10T01:31:56.467Z,100071.66
2022-09-10T01:34:30.314Z,100061.03
2022-09-10T01:37:04.157Z,100063.69
2022-09-10T01:39:37.478Z,100065.63
2022-09-10T01:42:07.549Z,100073.69
2022-09-10T01:44:49.026Z,100063.91
2022-09-10T01:47:41.923Z,100056.03
2022-09-10T01:50:22.656Z,100067.53
2022-09-10T01:53:05.182Z,100059.75
2022-09-10T01:55:38.853Z,100063.38
2022-09-10T01:58:19.935Z,100051.03
2022-09-10T02:01:05.708Z,100059.97
2022-09-10T02:03:37.534Z,100066.22
2022-09-10T02:06:09.463Z,100062.00
2022-09-10T02:08:42.989Z,100057.53
2022-09-10T02:11:14.306Z,100063.81
2022-09-10T02:13:48.420Z,100070.81
2022-09-10T02:16:43.777Z,100070.69
2022-09-10T02:19:15.025Z,100071.66
2022-09-10T02:21:44.605Z,100075.94
2022-09-10T02:24:15.259Z,100074.31
2022-09-10T02:26:47.265Z,100079.63
2022-09-10T02:29:19.283Z,100066.34
2022-09-10T02:31:51.455Z,100073.47
2022-09-10T02:34:21.764Z,100070.81
2022-09-10T02:36:52.404Z,100068.28
2022-09-10T02:39:22.337Z,100079.75
2022-09-10T02:41:53.898Z,100069.25
2022-09-10T02:44:27.193Z,100073.91
2022-09-10T02:46:59.428Z,100072.03
2022-09-10T02:49:29.183Z,100074.88
2022-09-10T02:51:58.761Z,100072.22
2022-09-10T02:54:28.694Z,100068.84
2022-09-10T02:56:58.542Z,100075.13
2022-09-10T02:59:29.037Z,100071.50
2022-09-10T03:02:02.242Z,100074.16
2022-09-10T03:04:31.906Z,100070.75
2022-09-10T03:07:01.552Z,100061.81
2022-09-10T03:09:31.424Z,100066.41
2022-09-10T03:12:01.039Z,100072.69
2022-09-10T03:14:31.186Z,100064.78
2022-09-10T03:17:03.870Z,100063.22
2022-09-10T03:19:34.033Z,100066.59
2022-09-10T03:22:03.640Z,100069.38
2022-09-10T03:24:35.802Z,100066.00
2022-09-10T03:27:06.092Z,100072.28
2022-09-10T03:29:36.297Z,100069.63
2022-09-10T03:32:08.977Z,100068.97
2022-09-10T03:34:39.946Z,100064.63
2022-09-10T03:37:09.694Z,100067.38
2022-09-10T03:39:39.478Z,100071.00
2022-09-10T03:42:09.426Z,100076.31
2022-09-10T03:44:39.094Z,100071.63
2022-09-10T03:47:12.345Z,100066.31
2022-09-10T03:49:42.758Z,100063.78
2022-09-10T03:52:13.672Z,100064.63
2022-09-10T03:54:45.555Z,100063.88
2022-09-10T03:57:15.556Z,100070.16
2022-09-10T03:59:46.108Z,100079.94
2022-09-10T04:02:18.510Z,100069.50
2022-09-10T04:04:49.246Z,100076.75
2022-09-10T04:07:18.765Z,100075.06
2022-09-10T04:09:48.315Z,100073.56
2022-09-10T04:12:17.986Z,100075.19
2022-09-10T04:14:47.710Z,100074.22
2022-09-10T04:17:20.929Z,100071.75
2022-09-10T04:19:52.344Z,100072.72
2022-09-10T04:22:23.472Z,100072.63
2022-09-10T04:24:53.734Z,100070.91
2022-09-10T04:27:26.631Z,100065.50
2022-09-10T04:29:57.372Z,100068.91
2022-09-10T04:32:30.968Z,100071.66
2022-09-10T04:35:03.006Z,100061.88
2022-09-10T04:37:33.608Z,100070.72
2022-09-10T04:40:05.191Z,100072.63
2022-09-10T04:42:39.851Z,100070.91
2022-09-10T04:45:11.552Z,100074.53
2022-09-10T04:47:46.031Z,100071.66
2022-09-10T04:50:17.089Z,100078.69
2022-09-10T04:53:07.869Z,100078.69
2022-09-10T04:55:39.488Z,100083.34
2022-09-10T04:58:09.498Z,100086.75
2022-09-10T05:00:39.377Z,100090.47
2022-09-10T05:03:13.250Z,100093.00
2022-09-10T05:05:46.030Z,100086.75
2022-09-10T05:08:15.883Z,100091.13
2022-09-10T05:10:53.362Z,100091.84
2022-09-10T05:13:24.246Z,100084.84
2022-09-10T05:15:54.478Z,100093.78
2022-09-10T05:18:27.590Z,100089.19
2022-09-10T05:20:57.729Z,100092.56
2022-09-10T05:23:27.507Z,100090.66
2022-09-10T05:25:57.723Z,100089.72
2022-09-10T05:28:27.530Z,100097.78
2022-09-10T05:30:58.106Z,100089.06
2022-09-10T05:33:32.721Z,100097.16
2022-09-10T05:36:02.877Z,100098.13
2022-09-10T05:38:36.063Z,100104.41
2022-09-10T05:41:08.110Z,100101.09
2022-09-10T05:43:37.934Z,100098.56
2022-09-10T05:46:08.234Z,100108.22
2022-09-10T05:48:41.911Z,100106.53
2022-09-10T05:51:13.453Z,100109.28
2022-09-10T05:53:44.657Z,100103.13
2022-09-10T05:56:14.411Z,100114.72
2022-09-10T05:58:46.826Z,100112.06
2022-09-10T06:01:17.481Z,100104.94
2022-09-10T06:03:51.013Z,100115.44
2022-09-10T06:06:21.254Z,100113.63
2022-09-10T06:08:59.839Z,100118.00
2022-09-10T06:11:50.261Z,100120.16
2022-09-10T06:14:20.985Z,100117.25
2022-09-10T06:16:53.578Z,100117.38
2022-09-10T06:19:27.043Z,100120.16
2022-09-10T06:21:58.242Z,100122.69
2022-09-10T06:24:29.335Z,100119.06
2022-09-10T06:26:59.989Z,100127.78
2022-09-10T06:29:33.092Z,100118.94
2022-09-10T06:32:02.712Z,100129.47
2022-09-10T06:34:35.807Z,100125.00
2022-09-10T06:37:07.148Z,100126.81
2022-09-10T06:39:39.539Z,100137.56
2022-09-10T06:42:10.072Z,100130.44
2022-09-10T06:45:12.577Z,100134.66
2022-09-10T06:50:58.468Z,100134.66
2022-09-10T06:53:39.914Z,100136.41
2022-09-10T06:56:15.138Z,100136.28
2022-09-10T06:58:45.717Z,100135.22
2022-09-10T07:01:19.058Z,100144.75
2022-09-10T07:03:59.617Z,100145.53
2022-09-10T07:06:35.298Z,100147.66
2022-09-10T07:09:12.269Z,100143.78
2022-09-10T07:11:51.455Z,100145.38
2022-09-10T07:14:21.507Z,100149.66
2022-09-10T07:16:53.435Z,100147.94
2022-09-10T07:19:26.000Z,100153.88
2022-09-10T07:21:58.233Z,100155.59
2022-09-10T07:24:28.608Z,100157.06
2022-09-10T07:27:07.569Z,100159.50
2022-09-10T07:29:38.618Z,100151.75
2022-09-10T07:32:13.784Z,100150.06
2022-09-10T07:34:43.764Z,100158.97
2022-09-10T07:37:18.259Z,100158.03
2022-09-10T07:39:49.526Z,100153.56
2022-09-10T07:42:20.529Z,100160.78
2022-09-10T07:44:52.194Z,100166.22
2022-09-10T07:47:22.080Z,100164.28
2022-09-10T07:49:52.531Z,100170.56
2022-09-10T07:52:24.697Z,100166.09
2022-09-10T07:54:57.164Z,100169.41
2022-09-10T07:57:27.167Z,100170.38
2022-09-10T07:59:57.851Z,100176.84
2022-09-10T08:02:28.206Z,100170.56
2022-09-10T08:05:04.278Z,100170.69
2022-09-10T08:07:38.296Z,100169.50
2022-09-10T08:10:10.965Z,100171.22
2022-09-10T08:12:43.608Z,100165.81
2022-09-10T08:15:14.591Z,100169.31
2022-09-10T08:17:44.995Z,100165.81
2022-09-10T08:20:15.101Z,100175.47
2022-09-10T08:22:51.472Z,100184.63
2022-09-10T08:25:21.570Z,100174.81
2022-09-10T08:27:51.508Z,100175.38
2022-09-10T08:30:21.053Z,100174.28
2022-09-10T08:32:51.536Z,100182.59
2022-09-10T08:35:24.135Z,100178.75
2022-09-10T08:37:56.506Z,100175.25
2022-09-10T08:40:26.448Z,100177.69
2022-09-10T08:42:56.346Z,100183.00
2022-09-10T08:45:30.485Z,100180.25
2022-09-10T08:48:05.910Z,100173.00
2022-09-10T08:50:40.984Z,100174.59
2022-09-10T08:53:25.961Z,100177.03
2022-09-10T08:55:59.152Z,100174.25
2022-09-10T08:58:31.571Z,100168.59
2022-09-10T09:01:05.913Z,100176.47
2022-09-10T09:03:39.752Z,100179.88
2022-09-10T09:06:12.984Z,100170.56
2022-09-10T09:08:51.849Z,100170.97
2022-09-10T09:11:35.091Z,100166.44
2022-09-10T09:14:25.499Z,100157.69
2022-09-10T09:17:09.279Z,100155.53
2022-09-10T09:19:47.101Z,100161.38
2022-09-10T09:22:21.503Z,100153.16
2022-09-10T09:24:59.283Z,100154.75
2022-09-10T09:27:31.707Z,100155.16
2022-09-10T09:30:04.749Z,100154.25
2022-09-10T09:32:42.532Z,100158.75
2022-09-10T09:35:25.374Z,100152.34
2022-09-10T09:38:13.860Z,100155.00
2022-09-10T09:40:49.700Z,100148.44
2022-09-10T09:43:27.324Z,100156.09
2022-09-10T09:45:57.471Z,100153.56
2022-09-10T09:48:38.709Z,100159.22
2022-09-10T09:51:11.685Z,100161.47
2022-09-10T09:53:46.372Z,100164.25
2022-09-10T09:56:25.219Z,100148.97
2022-09-10T09:58:55.099Z,100159.00
2022-09-10T10:01:26.424Z,100158.25
2022-09-10T10:03:59.022Z,100141.69
2022-09-10T10:06:31.319Z,100142.97
2022-09-10T10:09:06.211Z,100140.88
2022-09-10T10:11:51.061Z,100137.81
2022-09-10T10:14:29.393Z,100130.50
2022-09-10T10:17:01.074Z,100131.34
2022-09-10T10:19:36.820Z,100142.84
2022-09-10T10:22:22.198Z,100143.06
2022-09-10T10:24:54.143Z,100139.34
2022-09-10T10:27:32.861Z,100132.56
2022-09-10T10:30:07.325Z,100132.31
2022-09-10T10:32:44.796Z,100133.84
2022-09-10T10:35:32.738Z,100122.97
2022-09-10T10:38:31.970Z,100126.28
2022-09-10T10:41:32.951Z,100115.22
2022-09-10T10:44:24.103Z,100114.25
2022-09-10T10:47:00.579Z,100125.75
2022-09-10T10:49:39.406Z,100110.03
2022-09-10T10:52:15.318Z,100147.25
2022-09-10T10:54:56.814Z,100140.66
2022-09-10T10:57:33.306Z,100143.06
2022-09-10T11:00:09.353Z,100149.25
2022-09-10T11:02:43.492Z,100143.59
2022-09-10T11:05:22.266Z,100150.63
2022-09-10T11:07:52.796Z,100149.78
2022-09-10T11:10:26.036Z,100148.81
2022-09-10T11:12:59.904Z,100160.91
2022-09-10T11:15:37.141Z,100150.16
2022-09-10T11:18:12.072Z,100145.69
2022-09-10T11:20:45.282Z,100150.16
2022-09-10T11:23:25.745Z,100155.47
2022-09-10T11:25:59.624Z,100153.88
2022-09-10T11:28:32.165Z,100154.00
2022-09-10T11:31:09.868Z,100143.97
2022-09-10T11:33:46.188Z,100142.56
2022-09-10T11:36:24.740Z,100143.31
2022-09-10T11:39:04.511Z,100131.75
2022-09-10T11:41:34.498Z,100142.81
2022-09-10T11:44:10.652Z,100143.19
2022-09-10T11:46:46.163Z,100145.75
2022-09-10T11:49:21.746Z,100144.31
2022-09-10T11:51:51.977Z,100147.09
2022-09-10T11:54:25.570Z,100147.19
2022-09-10T11:57:00.156Z,100157.25
2022-09-10T11:59:46.427Z,100155.41
2022-09-10T12:02:41.567Z,100154.25
2022-09-10T12:05:20.906Z,100160.44
2022-09-10T12:07:54.428Z,100155.50
2022-09-10T12:10:31.681Z,100157.72
2022-09-10T12:13:01.494Z,100161.84
2022-09-10T12:15:34.431Z,100159.03
2022-09-10T12:18:11.213Z,100160.03
2022-09-10T12:20:44.810Z,100155.78
2022-09-10T12:23:18.720Z,100157.22
2022-09-10T12:25:48.323Z,100158.50
2022-09-10T12:28:56.385Z,100157.91
2022-09-10T12:31:27.607Z,100157.56
2022-09-10T12:34:21.379Z,100156.22
2022-09-10T12:37:22.031Z,100149.47
2022-09-10T12:39:52.255Z,100145.72
2022-09-10T12:42:36.804Z,100143.91
2022-09-10T12:45:06.888Z,100141.63
2022-09-10T12:47:57.554Z,100142.47
2022-09-10T12:50:38.575Z,100136.63
2022-09-10T12:53:33.175Z,100140.06
2022-09-10T12:56:04.514Z,100137.84
2022-09-10T12:58:47.948Z,100142.13
2022-09-10T13:01:24.158Z,100141.16
2022-09-10T13:03:56.508Z,100132.41
2022-09-10T13:06:42.703Z,100136.53
2022-09-10T13:09:20.114Z,100130.94
2022-09-10T13:11:52.300Z,100130.84
2022-09-10T13:14:23.933Z,100129.72
2022-09-10T13:16:55.371Z,100136.78
2022-09-10T13:19:53.387Z,100136.03
2022-09-10T13:23:04.401Z,100139.56
2022-09-10T13:25:42.877Z,100134.13
2022-09-10T13:28:45.133Z,100139.56
2022-09-10T13:31:21.059Z,100137.13
2022-09-10T13:34:02.937Z,100148.78
2022-09-10T13:36:35.729Z,100143.78
2022-09-10T13:39:20.147Z,100140.53
2022-09-10T13:42:18.541Z,100141.25
2022-09-10T13:45:17.198Z,100147.44
2022-09-10T13:47:50.088Z,100139.69
2022-09-10T13:50:22.887Z,100150.34
2022-09-10T13:52:55.676Z,100145.00
2022-09-10T13:55:29.766Z,100150.34
2022-09-10T13:58:03.507Z,100138.13
2022-09-10T14:00:37.231Z,100131.19
2022-09-10T14:03:16.963Z,100138.47
2022-09-10T14:05:50.076Z,100137.75
2022-09-10T14:08:23.139Z,100124.03
2022-09-10T14:10:57.304Z,100118.34
2022-09-10T14:13:32.729Z,100119.06
2022-09-10T14:16:04.580Z,100108.53
2022-09-10T14:18:40.342Z,100102.34
2022-09-10T14:21:09.973Z,100099.19
2022-09-10T14:23:41.014Z,100089.16
2022-09-10T14:26:15.367Z,100103.31
2022-09-10T14:28:58.890Z,100113.00
2022-09-10T14:31:35.153Z,100107.22
2022-09-10T14:34:33.377Z,100116.06
2022-09-10T14:37:03.556Z,100108.06
2022-09-10T14:39:35.481Z,100113.88
2022-09-10T14:42:13.869Z,100118.13
2022-09-10T14:44:46.228Z,100121.63
2022-09-10T14:47:23.618Z,100132.16
2022-09-10T14:49:53.299Z,100149.72
2022-09-10T14:52:23.476Z,100145.22
2022-09-10T14:54:53.035Z,100146.22
2022-09-10T14:57:23.239Z,100153.34
2022-09-10T14:59:57.501Z,100153.47
2022-09-10T15:02:29.058Z,100150.56
2022-09-10T15:04:58.648Z,100161.47
2022-09-10T15:07:28.588Z,100167.53
2022-09-10T15:09:58.137Z,100167.53
2022-09-10T15:12:29.198Z,100159.44
2022-09-10T15:15:01.550Z,100163.78
2022-09-10T15:17:31.096Z,100171.66
2022-09-10T15:20:01.593Z,100166.47
2022-09-10T15:22:32.831Z,100174.31
2022-09-10T15:25:11.183Z,100170.56
2022-09-10T15:27:41.811Z,100180.13
2022-09-10T15:30:14.315Z,100182.56
2022-09-10T15:32:45.914Z,100185.00
2022-09-10T15:35:15.560Z,100192.00
2022-09-10T15:37:45.128Z,100190.94
2022-09-10T15:40:14.732Z,100192.66
2022-09-10T15:42:44.314Z,100194.22
2022-09-10T15:45:16.656Z,100197.59
2022-09-10T15:47:46.200Z,100190.56
2022-09-10T15:50:16.247Z,100186.09
2022-09-10T15:52:45.980Z,100188.66
2022-09-10T15:55:16.153Z,100192.03
2022-09-10T15:57:45.663Z,100191.91
2022-09-10T16:00:18.658Z,100194.47
2022-09-10T16:02:53.065Z,100199.78
2022-09-10T16:05:23.840Z,100204.16
2022-09-10T16:07:53.415Z,100205.00
2022-09-10T16:10:23.227Z,100215.56
2022-09-10T16:12:53.335Z,100213.00
2022-09-10T16:15:26.103Z,100211.31
2022-09-10T16:17:56.379Z,100213.13
2022-09-10T16:20:26.607Z,100213.97
2022-09-10T16:22:58.275Z,100216.75
2022-09-10T16:25:29.246Z,100225.47
2022-09-10T16:27:59.103Z,100219.44
2022-09-10T16:30:31.672Z,100226.44
2022-09-10T16:33:01.267Z,100232.75
2022-09-10T16:35:30.833Z,100226.69
2022-09-10T16:38:01.115Z,100232.75
2022-09-10T16:40:30.755Z,100229.38
2022-09-10T16:43:00.344Z,100234.69
2022-09-10T16:45:32.878Z,100241.00
2022-09-10T16:48:04.396Z,100240.25
2022-09-10T16:50:35.305Z,100249.09
2022-09-10T16:53:08.978Z,100254.44
2022-09-10T16:55:41.017Z,100250.19
2022-09-10T16:58:10.704Z,100254.81
2022-09-10T17:04:29.283Z,100263.00
2022-09-10T17:06:59.183Z,100263.91
2022-09-10T17:09:28.941Z,100262.16
2022-09-10T17:11:58.461Z,100268.47
2022-09-10T17:14:28.251Z,100273.06
2022-09-10T17:16:58.594Z,100274.75
2022-09-10T17:19:30.855Z,100276.69
2022-09-10T17:22:00.489Z,100284.91
2022-09-10T17:24:30.011Z,100286.47
2022-09-10T17:26:59.679Z,100287.34
2022-09-10T17:29:29.931Z,100283.81
2022-09-10T17:31:59.932Z,100286.72
2022-09-10T17:34:33.807Z,100295.56
2022-09-10T17:37:03.418Z,100293.00
2022-09-10T17:39:33.125Z,100301.13
2022-09-10T17:42:02.682Z,100302.09
2022-09-10T17:44:32.232Z,100311.06
2022-09-10T17:47:01.780Z,100316.47
2022-09-10T17:49:33.971Z,100321.81
2022-09-10T17:52:04.614Z,100320.97
2022-09-10T17:54:34.470Z,100324.47
2022-09-10T17:57:04.137Z,100324.72
2022-09-10T17:59:35.205Z,100328.22
2022-09-10T18:02:05.133Z,100328.22
2022-09-10T18:04:37.448Z,100339.84
2022-09-10T18:07:07.103Z,100337.19
2022-09-10T18:09:36.994Z,100342.63
2022-09-10T18:12:06.860Z,100347.00
2022-09-10T18:14:37.316Z,100354.88
2022-09-10T18:17:07.179Z,100370.13
2022-09-10T18:19:39.293Z,100373.75
2022-09-10T18:22:08.859Z,100373.41
2022-09-10T18:24:39.017Z,100379.09
2022-09-10T18:27:08.595Z,100387.69
2022-09-10T18:29:41.402Z,100384.19
2022-09-10T18:32:11.051Z,100389.63
2022-09-10T18:34:43.327Z,100394.13
2022-09-10T18:37:13.820Z,100402.09
2022-09-10T18:39:43.475Z,100409.25
2022-09-10T18:42:13.784Z,100416.28
2022-09-10T18:44:43.461Z,100418.81
2022-09-10T18:47:34.303Z,100422.34
2022-09-10T18:50:05.237Z,100421.47
2022-09-10T18:52:35.814Z,100426.81
2022-09-10T18:55:05.489Z,100426.94
2022-09-10T18:57:35.050Z,100426.94
2022-09-10T19:00:05.186Z,100437.59
2022-09-10T19:02:34.819Z,100443.88
2022-09-10T19:05:11.592Z,100448.38
2022-09-10T19:07:41.783Z,100440.38
2022-09-10T19:10:11.508Z,100450.19
2022-09-10T19:12:42.059Z,100457.09
2022-09-10T19:15:12.788Z,100456.25
2022-09-10T19:17:42.366Z,100467.63
2022-09-10T19:20:14.619Z,100478.53
2022-09-10T19:22:44.220Z,100470.63
2022-09-10T19:25:14.161Z,100479.56
2022-09-10T19:27:45.158Z,100487.56
2022-09-10T19:30:15.586Z,100481.28
2022-09-10T19:32:45.115Z,100485.75
2022-09-10T19:35:17.524Z,100491.84
2022-09-10T19:37:48.205Z,100494.50
2022-09-10T19:40:18.004Z,100494.94
2022-09-10T19:42:47.557Z,100492.50
2022-09-10T19:45:17.197Z,100498.78
2022-09-10T19:47:47.064Z,100492.59
2022-09-10T19:50:22.774Z,100506.56
2022-09-10T19:52:53.667Z,100507.00
2022-09-10T19:55:23.634Z,100509.78
2022-09-10T19:57:54.187Z,100507.22
2022-09-10T20:00:45.352Z,100509.03
2022-09-10T20:03:13.737Z,100508.19
2022-09-10T20:05:46.205Z,100509.03
2022-09-10T20:08:15.787Z,100502.09
2022-09-10T20:10:51.925Z,100508.50
2022-09-10T20:13:21.614Z,100508.63
2022-09-10T20:15:51.387Z,100512.41
2022-09-10T20:18:21.209Z,100512.63
2022-09-10T20:20:53.621Z,100520.75
2022-09-10T20:23:23.244Z,100520.81
2022-09-10T20:25:52.751Z,100529.88
2022-09-10T20:28:22.266Z,100530.09
2022-09-10T20:30:52.208Z,100524.91
2022-09-10T20:33:22.341Z,100530.22
2022-09-10T20:35:54.530Z,100535.75
2022-09-10T20:38:24.119Z,100534.16
2022-09-10T20:40:53.627Z,100540.56
2022-09-10T20:43:23.229Z,100534.47
2022-09-10T20:45:52.737Z,100532.75
2022-09-10T20:48:22.283Z,100538.94
2022-09-10T20:50:59.155Z,100541.72
2022-09-10T20:53:28.979Z,100547.03
2022-09-10T20:56:06.373Z,100543.63
2022-09-10T20:58:37.318Z,100556.09
2022-09-10T21:01:11.563Z,100550.88
2022-09-10T21:03:42.006Z,100547.44
2022-09-10T21:06:15.545Z,100548.41
2022-09-10T21:08:45.484Z,100558.22
2022-09-10T21:11:16.045Z,100557.34
2022-09-10T21:13:47.504Z,100562.69
2022-09-10T21:16:19.821Z,100564.72
2022-09-10T21:18:54.383Z,100564.78
2022-09-10T21:21:28.460Z,100569.25
2022-09-10T21:23:59.591Z,100570.97
2022-09-10T21:26:30.571Z,100573.00
2022-09-10T21:29:02.160Z,100580.03
2022-09-10T21:31:32.841Z,100574.69
2022-09-10T21:34:03.774Z,100581.84
2022-09-10T21:36:37.425Z,100586.31
2022-09-10T21:39:09.818Z,100582.91
2022-09-10T21:41:41.028Z,100589.06
2022-09-10T21:44:14.233Z,100581.09
2022-09-10T21:46:44.491Z,100585.56
2022-09-10T21:49:14.122Z,100581.94
2022-09-10T21:51:46.503Z,100580.25
2022-09-10T21:54:18.686Z,100590.16
2022-09-10T21:56:48.305Z,100589.38
2022-09-10T21:59:18.180Z,100592.03
2022-09-10T22:01:49.142Z,100600.97
2022-09-10T22:04:22.848Z,100602.78
2022-09-10T22:06:57.487Z,100597.47
2022-09-10T22:09:27.085Z,100599.28
2022-09-10T22:11:59.168Z,100603.75
2022-09-10T22:14:28.977Z,100600.44
2022-09-10T22:17:00.236Z,100604.16
2022-09-10T22:19:30.000Z,100599.91
2022-09-10T22:22:02.654Z,100609.88
2022-09-10T22:24:32.201Z,100606.34
2022-09-10T22:27:02.332Z,100610.94
2022-09-10T22:29:31.920Z,100616.47
2022-09-10T22:32:01.449Z,100616.66
2022-09-10T22:34:30.972Z,100623.88
2022-09-10T22:37:03.296Z,100620.47
2022-09-10T22:39:36.806Z,100617.94
2022-09-10T22:42:07.587Z,100629.59
2022-09-10T22:44:37.252Z,100635.03
2022-09-10T22:47:08.044Z,100632.59
2022-09-10T22:49:37.614Z,100633.63
2022-09-10T22:52:09.799Z,100633.81
2022-09-10T22:54:39.433Z,100631.38
2022-09-10T22:57:08.944Z,100641.16
2022-09-10T22:59:38.487Z,100633.47
2022-09-10T23:02:08.043Z,100638.88
2022-09-10T23:04:37.607Z,100635.56
2022-09-10T23:07:09.841Z,100640.13
2022-09-10T23:09:39.360Z,100630.63
2022-09-10T23:12:09.344Z,100637.81
2022-09-10T23:14:39.314Z,100636.13
2022-09-10T23:17:09.060Z,100634.63
2022-09-10T23:19:38.650Z,100640.13
2022-09-10T23:22:12.868Z,100635.84
2022-09-10T23:24:42.401Z,100644.88
2022-09-10T23:27:13.429Z,100647.81
2022-09-10T23:29:43.158Z,100653.03
2022-09-10T23:32:12.712Z,100650.78
2022-09-10T23:34:42.905Z,100651.91
2022-09-10T23:37:15.244Z,100649.34
2022-09-10T23:39:44.839Z,100657.44
2022-09-10T23:42:14.757Z,100657.59
2022-09-10T23:44:44.248Z,100662.25
2022-09-10T23:47:13.774Z,100664.06
2022-09-10T23:49:43.952Z,100667.84
2022-09-10T23:52:16.084Z,100659.97
2022-09-10T23:54:45.631Z,100667.09
2022-09-10T23:57:15.205Z,100662.94
2022-09-10T23:59:44.816Z,100666.63
